sensor_id;sensor_type;location;lat;lon;timestamp;temperature;humidity
152;DHT22;68;48.792;9.164;2023-06-10T00:00:20;20.50;74.10
152;DHT22;68;48.792;9.164;2023-06-10T00:02:48;20.10;74.30
152;DHT22;68;48.792;9.164;2023-06-10T00:05:14;19.90;75.90
152;DHT22;68;48.792;9.164;2023-06-10T00:07:42;19.60;75.10
152;DHT22;68;48.792;9.164;2023-06-10T00:10:09;19.40;75.20
152;DHT22;68;48.792;9.164;2023-06-10T00:12:36;19.30;75.20
152;DHT22;68;48.792;9.164;2023-06-10T00:15:05;19.40;74.50
152;DHT22;68;48.792;9.164;2023-06-10T00:17:33;19.40;74.50
152;DHT22;68;48.792;9.164;2023-06-10T00:20:00;19.50;74.70
152;DHT22;68;48.792;9.164;2023-06-10T00:22:30;19.60;74.90
152;DHT22;68;48.792;9.164;2023-06-10T00:24:57;19.50;74.20
152;DHT22;68;48.792;9.164;2023-06-10T00:27:24;19.50;74.50
152;DHT22;68;48.792;9.164;2023-06-10T00:29:56;19.50;74.60
152;DHT22;68;48.792;9.164;2023-06-10T00:32:23;19.50;74.90
152;DHT22;68;48.792;9.164;2023-06-10T00:34:51;19.40;74.80
152;DHT22;68;48.792;9.164;2023-06-10T00:37:18;19.50;75.20
152;DHT22;68;48.792;9.164;2023-06-10T00:39:45;19.40;75.20
152;DHT22;68;48.792;9.164;2023-06-10T00:42:11;19.40;75.20
152;DHT22;68;48.792;9.164;2023-06-10T00:44:38;19.40;75.60
152;DHT22;68;48.792;9.164;2023-06-10T00:47:06;19.30;75.10
152;DHT22;68;48.792;9.164;2023-06-10T00:49:33;19.40;75.40
152;DHT22;68;48.792;9.164;2023-06-10T00:52:03;19.40;75.70
152;DHT22;68;48.792;9.164;2023-06-10T00:54:31;19.40;75.60
152;DHT22;68;48.792;9.164;2023-06-10T00:57:00;19.30;75.20
152;DHT22;68;48.792;9.164;2023-06-10T00:59:28;19.30;77.60
152;DHT22;68;48.792;9.164;2023-06-10T01:01:56;19.80;77.00
152;DHT22;68;48.792;9.164;2023-06-10T01:04:23;19.60;76.80
152;DHT22;68;48.792;9.164;2023-06-10T01:06:54;19.50;79.10
152;DHT22;68;48.792;9.164;2023-06-10T01:09:31;19.30;78.00
152;DHT22;68;48.792;9.164;2023-06-10T01:12:05;19.10;78.80
152;DHT22;68;48.792;9.164;2023-06-10T01:14:34;18.80;79.30
152;DHT22;68;48.792;9.164;2023-06-10T01:17:02;18.70;80.70
152;DHT22;68;48.792;9.164;2023-06-10T01:19:30;18.50;82.00
152;DHT22;68;48.792;9.164;2023-06-10T01:21:58;18.30;80.90
152;DHT22;68;48.792;9.164;2023-06-10T01:24:26;18.20;81.10
152;DHT22;68;48.792;9.164;2023-06-10T01:26:54;18.20;81.00
152;DHT22;68;48.792;9.164;2023-06-10T01:29:30;18.50;82.20
152;DHT22;68;48.792;9.164;2023-06-10T01:32:03;18.50;80.80
152;DHT22;68;48.792;9.164;2023-06-10T01:34:33;18.60;82.10
152;DHT22;68;48.792;9.164;2023-06-10T01:37:04;18.70;81.60
152;DHT22;68;48.792;9.164;2023-06-10T01:39:32;18.80;81.70
152;DHT22;68;48.792;9.164;2023-06-10T01:41:59;18.60;80.60
152;DHT22;68;48.792;9.164;2023-06-10T01:44:27;18.40;80.80
152;DHT22;68;48.792;9.164;2023-06-10T01:46:54;18.50;83.00
152;DHT22;68;48.792;9.164;2023-06-10T01:49:21;18.80;81.30
152;DHT22;68;48.792;9.164;2023-06-10T01:51:49;19.00;81.00
152;DHT22;68;48.792;9.164;2023-06-10T01:54:17;18.90;80.90
152;DHT22;68;48.792;9.164;2023-06-10T01:56:44;18.80;81.00
152;DHT22;68;48.792;9.164;2023-06-10T01:59:11;18.50;80.00
152;DHT22;68;48.792;9.164;2023-06-10T02:01:38;18.30;80.10
152;DHT22;68;48.792;9.164;2023-06-10T02:04:04;18.20;79.00
152;DHT22;68;48.792;9.164;2023-06-10T02:06:31;18.30;80.80
152;DHT22;68;48.792;9.164;2023-06-10T02:08:58;18.50;82.00
152;DHT22;68;48.792;9.164;2023-06-10T02:11:26;18.30;79.20
152;DHT22;68;48.792;9.164;2023-06-10T02:13:53;18.20;78.90
152;DHT22;68;48.792;9.164;2023-06-10T02:16:20;18.30;79.10
152;DHT22;68;48.792;9.164;2023-06-10T02:18:47;18.30;79.30
152;DHT22;68;48.792;9.164;2023-06-10T02:21:14;18.20;78.90
152;DHT22;68;48.792;9.164;2023-06-10T02:23:41;18.30;79.30
152;DHT22;68;48.792;9.164;2023-06-10T02:26:07;18.40;80.80
152;DHT22;68;48.792;9.164;2023-06-10T02:28:35;18.40;80.50
152;DHT22;68;48.792;9.164;2023-06-10T02:31:02;18.30;79.20
152;DHT22;68;48.792;9.164;2023-06-10T02:33:29;18.20;79.00
152;DHT22;68;48.792;9.164;2023-06-10T02:35:55;18.10;79.20
152;DHT22;68;48.792;9.164;2023-06-10T02:38:22;18.10;79.40
152;DHT22;68;48.792;9.164;2023-06-10T02:40:49;18.10;79.40
152;DHT22;68;48.792;9.164;2023-06-10T02:43:16;18.10;79.70
152;DHT22;68;48.792;9.164;2023-06-10T02:45:44;18.00;79.50
152;DHT22;68;48.792;9.164;2023-06-10T02:48:10;18.00;79.60
152;DHT22;68;48.792;9.164;2023-06-10T02:50:37;18.00;79.70
152;DHT22;68;48.792;9.164;2023-06-10T02:53:05;17.90;79.80
152;DHT22;68;48.792;9.164;2023-06-10T02:55:32;18.00;80.00
152;DHT22;68;48.792;9.164;2023-06-10T02:58:00;18.10;79.80
152;DHT22;68;48.792;9.164;2023-06-10T03:00:28;18.10;82.10
152;DHT22;68;48.792;9.164;2023-06-10T03:02:56;18.10;82.90
152;DHT22;68;48.792;9.164;2023-06-10T03:05:23;17.90;83.20
152;DHT22;68;48.792;9.164;2023-06-10T03:07:50;17.70;84.00
152;DHT22;68;48.792;9.164;2023-06-10T03:10:17;17.50;84.90
152;DHT22;68;48.792;9.164;2023-06-10T03:12:44;17.40;84.40
152;DHT22;68;48.792;9.164;2023-06-10T03:15:10;17.40;86.10
152;DHT22;68;48.792;9.164;2023-06-10T03:17:37;17.60;85.70
152;DHT22;68;48.792;9.164;2023-06-10T03:20:07;18.00;84.10
152;DHT22;68;48.792;9.164;2023-06-10T03:22:35;18.40;82.80
152;DHT22;68;48.792;9.164;2023-06-10T03:25:04;18.20;83.40
152;DHT22;68;48.792;9.164;2023-06-10T03:27:30;17.90;84.30
152;DHT22;68;48.792;9.164;2023-06-10T03:29:58;17.80;85.10
152;DHT22;68;48.792;9.164;2023-06-10T03:32:25;17.80;85.00
152;DHT22;68;48.792;9.164;2023-06-10T03:34:52;17.80;84.80
152;DHT22;68;48.792;9.164;2023-06-10T03:37:23;17.60;83.70
152;DHT22;68;48.792;9.164;2023-06-10T03:39:50;17.20;84.90
152;DHT22;68;48.792;9.164;2023-06-10T03:42:17;17.00;85.90
152;DHT22;68;48.792;9.164;2023-06-10T03:44:43;16.90;86.70
152;DHT22;68;48.792;9.164;2023-06-10T03:47:10;16.70;87.00
152;DHT22;68;48.792;9.164;2023-06-10T03:49:38;16.70;87.80
152;DHT22;68;48.792;9.164;2023-06-10T03:52:06;16.60;88.20
152;DHT22;68;48.792;9.164;2023-06-10T03:54:34;16.50;88.30
152;DHT22;68;48.792;9.164;2023-06-10T03:57:01;16.40;89.00
152;DHT22;68;48.792;9.164;2023-06-10T03:59:28;16.40;88.90
152;DHT22;68;48.792;9.164;2023-06-10T04:01:55;16.60;89.80
152;DHT22;68;48.792;9.164;2023-06-10T04:04:23;16.80;89.70
152;DHT22;68;48.792;9.164;2023-06-10T04:06:50;16.70;88.70
152;DHT22;68;48.792;9.164;2023-06-10T04:09:17;16.70;88.60
152;DHT22;68;48.792;9.164;2023-06-10T04:11:45;16.60;89.20
152;DHT22;68;48.792;9.164;2023-06-10T04:14:13;16.60;89.50
152;DHT22;68;48.792;9.164;2023-06-10T04:16:40;16.70;89.60
152;DHT22;68;48.792;9.164;2023-06-10T04:19:08;16.70;89.60
152;DHT22;68;48.792;9.164;2023-06-10T04:21:34;16.90;89.20
152;DHT22;68;48.792;9.164;2023-06-10T04:24:02;16.90;89.30
152;DHT22;68;48.792;9.164;2023-06-10T04:26:29;16.80;89.30
152;DHT22;68;48.792;9.164;2023-06-10T04:28:57;16.80;89.60
152;DHT22;68;48.792;9.164;2023-06-10T04:31:24;16.80;90.70
152;DHT22;68;48.792;9.164;2023-06-10T04:33:51;17.00;91.00
152;DHT22;68;48.792;9.164;2023-06-10T04:36:17;17.40;90.30
152;DHT22;68;48.792;9.164;2023-06-10T04:38:44;17.50;89.20
152;DHT22;68;48.792;9.164;2023-06-10T04:41:12;17.40;88.50
152;DHT22;68;48.792;9.164;2023-06-10T04:43:39;17.10;88.00
152;DHT22;68;48.792;9.164;2023-06-10T04:46:07;16.90;89.00
152;DHT22;68;48.792;9.164;2023-06-10T04:48:34;16.90;91.20
152;DHT22;68;48.792;9.164;2023-06-10T04:51:01;16.80;90.30
152;DHT22;68;48.792;9.164;2023-06-10T04:53:28;16.90;91.40
152;DHT22;68;48.792;9.164;2023-06-10T04:55:55;16.90;91.30
152;DHT22;68;48.792;9.164;2023-06-10T04:58:22;17.00;91.60
152;DHT22;68;48.792;9.164;2023-06-10T05:00:49;17.10;91.40
152;DHT22;68;48.792;9.164;2023-06-10T05:03:18;17.30;90.80
152;DHT22;68;48.792;9.164;2023-06-10T05:05:44;17.40;90.30
152;DHT22;68;48.792;9.164;2023-06-10T05:08:11;17.60;89.80
152;DHT22;68;48.792;9.164;2023-06-10T05:10:38;17.80;89.00
152;DHT22;68;48.792;9.164;2023-06-10T05:13:05;17.80;89.20
152;DHT22;68;48.792;9.164;2023-06-10T05:15:32;18.10;87.90
152;DHT22;68;48.792;9.164;2023-06-10T05:17:58;18.20;87.40
152;DHT22;68;48.792;9.164;2023-06-10T05:20:26;18.40;86.70
152;DHT22;68;48.792;9.164;2023-06-10T05:22:54;18.50;86.80
152;DHT22;68;48.792;9.164;2023-06-10T05:25:21;18.50;86.10
152;DHT22;68;48.792;9.164;2023-06-10T05:27:48;18.60;85.40
152;DHT22;68;48.792;9.164;2023-06-10T05:30:15;18.60;84.60
152;DHT22;68;48.792;9.164;2023-06-10T05:32:44;18.60;85.40
152;DHT22;68;48.792;9.164;2023-06-10T05:35:11;18.80;85.40
152;DHT22;68;48.792;9.164;2023-06-10T05:37:39;18.90;84.60
152;DHT22;68;48.792;9.164;2023-06-10T05:40:07;19.00;84.00
152;DHT22;68;48.792;9.164;2023-06-10T05:42:34;19.20;83.00
152;DHT22;68;48.792;9.164;2023-06-10T05:45:00;19.20;82.50
152;DHT22;68;48.792;9.164;2023-06-10T05:47:27;18.90;83.00
152;DHT22;68;48.792;9.164;2023-06-10T05:49:54;18.60;83.70
152;DHT22;68;48.792;9.164;2023-06-10T05:52:21;18.60;84.20
152;DHT22;68;48.792;9.164;2023-06-10T05:54:50;18.60;84.40
152;DHT22;68;48.792;9.164;2023-06-10T05:57:17;18.90;84.00
152;DHT22;68;48.792;9.164;2023-06-10T05:59:44;19.20;83.30
152;DHT22;68;48.792;9.164;2023-06-10T06:02:10;19.30;83.20
152;DHT22;68;48.792;9.164;2023-06-10T06:04:37;19.50;81.60
152;DHT22;68;48.792;9.164;2023-06-10T06:07:04;19.40;82.40
152;DHT22;68;48.792;9.164;2023-06-10T06:09:31;19.40;82.20
152;DHT22;68;48.792;9.164;2023-06-10T06:11:59;19.30;81.80
152;DHT22;68;48.792;9.164;2023-06-10T06:14:30;19.00;83.00
152;DHT22;68;48.792;9.164;2023-06-10T06:16:57;19.00;83.80
152;DHT22;68;48.792;9.164;2023-06-10T06:19:24;19.00;83.90
152;DHT22;68;48.792;9.164;2023-06-10T06:21:51;19.20;83.40
152;DHT22;68;48.792;9.164;2023-06-10T06:24:18;19.30;82.30
152;DHT22;68;48.792;9.164;2023-06-10T06:26:44;19.40;82.70
152;DHT22;68;48.792;9.164;2023-06-10T06:29:13;19.70;82.50
152;DHT22;68;48.792;9.164;2023-06-10T06:31:39;19.90;81.50
152;DHT22;68;48.792;9.164;2023-06-10T06:34:06;19.80;81.40
152;DHT22;68;48.792;9.164;2023-06-10T06:36:33;19.80;80.40
152;DHT22;68;48.792;9.164;2023-06-10T06:39:00;19.90;80.50
152;DHT22;68;48.792;9.164;2023-06-10T06:41:26;19.90;81.10
152;DHT22;68;48.792;9.164;2023-06-10T06:43:54;19.90;81.30
152;DHT22;68;48.792;9.164;2023-06-10T06:46:22;20.20;81.90
152;DHT22;68;48.792;9.164;2023-06-10T06:48:49;20.40;80.40
152;DHT22;68;48.792;9.164;2023-06-10T06:51:15;20.50;79.30
152;DHT22;68;48.792;9.164;2023-06-10T06:53:42;20.40;78.70
152;DHT22;68;48.792;9.164;2023-06-10T06:56:10;20.40;79.20
152;DHT22;68;48.792;9.164;2023-06-10T06:58:37;20.40;79.80
152;DHT22;68;48.792;9.164;2023-06-10T07:01:04;20.50;78.60
152;DHT22;68;48.792;9.164;2023-06-10T07:03:33;20.50;78.80
152;DHT22;68;48.792;9.164;2023-06-10T07:06:00;20.40;79.30
152;DHT22;68;48.792;9.164;2023-06-10T07:08:26;20.40;79.10
152;DHT22;68;48.792;9.164;2023-06-10T07:10:54;20.30;79.60
152;DHT22;68;48.792;9.164;2023-06-10T07:13:21;20.30;79.30
152;DHT22;68;48.792;9.164;2023-06-10T07:15:47;20.40;79.00
152;DHT22;68;48.792;9.164;2023-06-10T07:18:15;20.60;79.10
152;DHT22;68;48.792;9.164;2023-06-10T07:20:43;20.80;78.10
152;DHT22;68;48.792;9.164;2023-06-10T07:23:10;21.00;78.50
152;DHT22;68;48.792;9.164;2023-06-10T07:25:37;21.10;78.50
152;DHT22;68;48.792;9.164;2023-06-10T07:28:04;21.20;78.30
152;DHT22;68;48.792;9.164;2023-06-10T07:30:31;21.30;77.80
152;DHT22;68;48.792;9.164;2023-06-10T07:32:57;21.50;76.40
152;DHT22;68;48.792;9.164;2023-06-10T07:35:24;21.40;76.20
152;DHT22;68;48.792;9.164;2023-06-10T07:37:52;21.30;76.00
152;DHT22;68;48.792;9.164;2023-06-10T07:40:19;21.30;76.00
152;DHT22;68;48.792;9.164;2023-06-10T07:42:46;21.40;76.50
152;DHT22;68;48.792;9.164;2023-06-10T07:45:13;21.50;75.60
152;DHT22;68;48.792;9.164;2023-06-10T07:47:39;21.50;76.70
152;DHT22;68;48.792;9.164;2023-06-10T07:50:06;21.60;76.80
152;DHT22;68;48.792;9.164;2023-06-10T07:52:33;21.90;76.40
152;DHT22;68;48.792;9.164;2023-06-10T07:55:02;21.80;75.70
152;DHT22;68;48.792;9.164;2023-06-10T07:57:28;21.80;76.40
152;DHT22;68;48.792;9.164;2023-06-10T07:59:57;21.90;76.30
152;DHT22;68;48.792;9.164;2023-06-10T08:02:25;22.00;75.20
152;DHT22;68;48.792;9.164;2023-06-10T08:04:52;21.90;75.10
152;DHT22;68;48.792;9.164;2023-06-10T08:07:19;22.00;75.70
152;DHT22;68;48.792;9.164;2023-06-10T08:09:45;22.10;75.90
152;DHT22;68;48.792;9.164;2023-06-10T08:12:14;22.00;74.80
152;DHT22;68;48.792;9.164;2023-06-10T08:14:40;22.10;75.60
152;DHT22;68;48.792;9.164;2023-06-10T08:17:07;22.20;74.40
152;DHT22;68;48.792;9.164;2023-06-10T08:19:34;22.30;74.90
152;DHT22;68;48.792;9.164;2023-06-10T08:22:01;22.40;74.70
152;DHT22;68;48.792;9.164;2023-06-10T08:24:27;22.40;73.40
152;DHT22;68;48.792;9.164;2023-06-10T08:26:54;22.50;72.20
152;DHT22;68;48.792;9.164;2023-06-10T08:29:23;22.70;72.60
152;DHT22;68;48.792;9.164;2023-06-10T08:31:50;22.80;73.30
152;DHT22;68;48.792;9.164;2023-06-10T08:34:17;23.00;73.40
152;DHT22;68;48.792;9.164;2023-06-10T08:36:44;23.30;72.00
152;DHT22;68;48.792;9.164;2023-06-10T08:39:10;23.30;70.40
152;DHT22;68;48.792;9.164;2023-06-10T08:41:42;23.40;71.00
152;DHT22;68;48.792;9.164;2023-06-10T08:44:12;23.60;70.50
152;DHT22;68;48.792;9.164;2023-06-10T08:46:45;23.60;70.90
152;DHT22;68;48.792;9.164;2023-06-10T08:49:18;23.50;70.20
152;DHT22;68;48.792;9.164;2023-06-10T08:51:48;23.50;72.90
152;DHT22;68;48.792;9.164;2023-06-10T08:54:20;23.60;71.30
152;DHT22;68;48.792;9.164;2023-06-10T08:56:49;23.60;70.80
152;DHT22;68;48.792;9.164;2023-06-10T08:59:17;23.50;69.60
152;DHT22;68;48.792;9.164;2023-06-10T09:01:46;23.60;68.50
152;DHT22;68;48.792;9.164;2023-06-10T09:04:13;23.80;69.80
152;DHT22;68;48.792;9.164;2023-06-10T09:06:41;23.80;69.50
152;DHT22;68;48.792;9.164;2023-06-10T09:09:08;23.70;69.60
152;DHT22;68;48.792;9.164;2023-06-10T09:11:37;23.80;70.00
152;DHT22;68;48.792;9.164;2023-06-10T09:14:04;24.00;69.50
152;DHT22;68;48.792;9.164;2023-06-10T09:16:31;24.30;68.00
152;DHT22;68;48.792;9.164;2023-06-10T09:18:59;24.20;67.70
152;DHT22;68;48.792;9.164;2023-06-10T09:21:26;24.40;69.20
152;DHT22;68;48.792;9.164;2023-06-10T09:23:53;24.50;67.50
152;DHT22;68;48.792;9.164;2023-06-10T09:26:19;24.60;68.60
152;DHT22;68;48.792;9.164;2023-06-10T09:28:48;24.90;69.40
152;DHT22;68;48.792;9.164;2023-06-10T09:31:16;25.10;66.70
152;DHT22;68;48.792;9.164;2023-06-10T09:33:45;25.30;66.40
152;DHT22;68;48.792;9.164;2023-06-10T09:36:21;25.30;65.50
152;DHT22;68;48.792;9.164;2023-06-10T09:38:49;25.20;66.10
152;DHT22;68;48.792;9.164;2023-06-10T09:41:17;25.50;67.40
152;DHT22;68;48.792;9.164;2023-06-10T09:43:45;25.70;64.30
152;DHT22;68;48.792;9.164;2023-06-10T09:46:15;25.40;64.60
152;DHT22;68;48.792;9.164;2023-06-10T09:48:44;25.00;65.70
152;DHT22;68;48.792;9.164;2023-06-10T09:51:13;25.10;65.90
152;DHT22;68;48.792;9.164;2023-06-10T09:53:40;25.40;65.30
152;DHT22;68;48.792;9.164;2023-06-10T09:56:07;25.50;65.30
152;DHT22;68;48.792;9.164;2023-06-10T09:58:35;25.60;65.60
152;DHT22;68;48.792;9.164;2023-06-10T10:01:05;25.60;66.00
152;DHT22;68;48.792;9.164;2023-06-10T10:03:32;25.90;65.90
152;DHT22;68;48.792;9.164;2023-06-10T10:05:59;26.00;66.50
152;DHT22;68;48.792;9.164;2023-06-10T10:08:28;26.20;64.30
152;DHT22;68;48.792;9.164;2023-06-10T10:10:57;26.20;63.80
152;DHT22;68;48.792;9.164;2023-06-10T10:13:25;25.90;63.90
152;DHT22;68;48.792;9.164;2023-06-10T10:15:54;25.70;63.90
152;DHT22;68;48.792;9.164;2023-06-10T10:18:24;25.90;64.50
152;DHT22;68;48.792;9.164;2023-06-10T10:20:54;26.00;63.90
152;DHT22;68;48.792;9.164;2023-06-10T10:23:24;26.00;62.90
152;DHT22;68;48.792;9.164;2023-06-10T10:25:55;25.90;64.90
152;DHT22;68;48.792;9.164;2023-06-10T10:28:24;25.80;63.20
152;DHT22;68;48.792;9.164;2023-06-10T10:30:54;25.90;64.10
152;DHT22;68;48.792;9.164;2023-06-10T10:33:33;26.30;63.60
152;DHT22;68;48.792;9.164;2023-06-10T10:36:02;26.30;62.20
152;DHT22;68;48.792;9.164;2023-06-10T10:38:29;26.50;62.20
152;DHT22;68;48.792;9.164;2023-06-10T10:40:58;26.60;63.30
152;DHT22;68;48.792;9.164;2023-06-10T10:43:26;26.50;62.50
152;DHT22;68;48.792;9.164;2023-06-10T10:46:00;26.10;63.40
152;DHT22;68;48.792;9.164;2023-06-10T10:48:33;26.00;62.80
152;DHT22;68;48.792;9.164;2023-06-10T10:51:01;25.50;63.80
152;DHT22;68;48.792;9.164;2023-06-10T10:53:28;25.10;65.30
152;DHT22;68;48.792;9.164;2023-06-10T10:56:06;25.10;65.20
152;DHT22;68;48.792;9.164;2023-06-10T10:58:33;25.50;63.90
152;DHT22;68;48.792;9.164;2023-06-10T11:01:00;25.70;62.80
152;DHT22;68;48.792;9.164;2023-06-10T11:03:42;25.70;63.30
152;DHT22;68;48.792;9.164;2023-06-10T11:06:12;25.30;64.00
152;DHT22;68;48.792;9.164;2023-06-10T11:08:46;25.20;63.80
152;DHT22;68;48.792;9.164;2023-06-10T11:11:22;25.20;64.70
152;DHT22;68;48.792;9.164;2023-06-10T11:14:05;25.40;64.40
152;DHT22;68;48.792;9.164;2023-06-10T11:16:39;25.70;63.20
152;DHT22;68;48.792;9.164;2023-06-10T11:19:06;25.80;63.00
152;DHT22;68;48.792;9.164;2023-06-10T11:21:45;25.90;63.50
152;DHT22;68;48.792;9.164;2023-06-10T11:24:23;25.90;64.40
152;DHT22;68;48.792;9.164;2023-06-10T11:26:51;26.10;64.00
152;DHT22;68;48.792;9.164;2023-06-10T11:29:18;26.40;63.80
152;DHT22;68;48.792;9.164;2023-06-10T11:31:50;26.60;62.20
152;DHT22;68;48.792;9.164;2023-06-10T11:34:22;26.80;62.90
152;DHT22;68;48.792;9.164;2023-06-10T11:36:51;26.80;60.80
152;DHT22;68;48.792;9.164;2023-06-10T11:39:19;26.50;60.10
152;DHT22;68;48.792;9.164;2023-06-10T11:41:46;26.80;61.70
152;DHT22;68;48.792;9.164;2023-06-10T11:44:15;26.80;59.60
152;DHT22;68;48.792;9.164;2023-06-10T11:46:42;26.70;60.90
152;DHT22;68;48.792;9.164;2023-06-10T11:49:09;26.80;61.20
152;DHT22;68;48.792;9.164;2023-06-10T11:51:37;27.10;60.70
152;DHT22;68;48.792;9.164;2023-06-10T11:54:07;26.60;59.50
152;DHT22;68;48.792;9.164;2023-06-10T11:56:35;26.40;61.50
152;DHT22;68;48.792;9.164;2023-06-10T11:59:04;26.30;59.30
152;DHT22;68;48.792;9.164;2023-06-10T12:01:35;26.50;60.00
152;DHT22;68;48.792;9.164;2023-06-10T12:04:03;26.50;62.70
152;DHT22;68;48.792;9.164;2023-06-10T12:06:42;26.40;62.70
152;DHT22;68;48.792;9.164;2023-06-10T12:09:20;26.50;59.90
152;DHT22;68;48.792;9.164;2023-06-10T12:16:59;26.40;63.20
152;DHT22;68;48.792;9.164;2023-06-10T12:19:26;26.70;60.30
152;DHT22;68;48.792;9.164;2023-06-10T12:21:53;26.80;60.20
152;DHT22;68;48.792;9.164;2023-06-10T12:24:20;27.00;59.40
152;DHT22;68;48.792;9.164;2023-06-10T12:26:46;27.30;59.70
152;DHT22;68;48.792;9.164;2023-06-10T12:29:18;27.40;58.60
152;DHT22;68;48.792;9.164;2023-06-10T12:31:55;27.30;59.00
152;DHT22;68;48.792;9.164;2023-06-10T12:34:36;26.90;56.90
152;DHT22;68;48.792;9.164;2023-06-10T12:37:04;26.70;57.80
152;DHT22;68;48.792;9.164;2023-06-10T12:39:32;26.50;58.20
152;DHT22;68;48.792;9.164;2023-06-10T12:41:59;26.80;58.90
152;DHT22;68;48.792;9.164;2023-06-10T12:44:30;26.90;57.70
152;DHT22;68;48.792;9.164;2023-06-10T12:46:56;27.00;58.10
152;DHT22;68;48.792;9.164;2023-06-10T12:49:24;27.00;57.10
152;DHT22;68;48.792;9.164;2023-06-10T12:51:53;26.80;58.30
152;DHT22;68;48.792;9.164;2023-06-10T12:54:20;26.60;59.50
152;DHT22;68;48.792;9.164;2023-06-10T12:56:47;26.60;59.00
152;DHT22;68;48.792;9.164;2023-06-10T12:59:14;26.60;58.00
152;DHT22;68;48.792;9.164;2023-06-10T13:01:41;26.40;57.50
152;DHT22;68;48.792;9.164;2023-06-10T13:04:07;26.50;59.50
152;DHT22;68;48.792;9.164;2023-06-10T13:06:35;26.60;58.60
152;DHT22;68;48.792;9.164;2023-06-10T13:09:05;26.90;59.30
152;DHT22;68;48.792;9.164;2023-06-10T13:11:33;27.00;57.50
152;DHT22;68;48.792;9.164;2023-06-10T13:14:01;27.20;57.90
152;DHT22;68;48.792;9.164;2023-06-10T13:16:30;27.30;57.00
152;DHT22;68;48.792;9.164;2023-06-10T13:18:57;27.10;57.40
152;DHT22;68;48.792;9.164;2023-06-10T13:21:23;27.00;57.50
152;DHT22;68;48.792;9.164;2023-06-10T13:23:50;27.20;58.00
152;DHT22;68;48.792;9.164;2023-06-10T13:26:18;27.10;58.10
152;DHT22;68;48.792;9.164;2023-06-10T13:28:45;27.00;58.00
152;DHT22;68;48.792;9.164;2023-06-10T13:31:12;27.00;58.00
152;DHT22;68;48.792;9.164;2023-06-10T13:33:39;27.30;58.30
152;DHT22;68;48.792;9.164;2023-06-10T13:36:06;27.40;56.50
152;DHT22;68;48.792;9.164;2023-06-10T13:38:33;27.40;59.00
152;DHT22;68;48.792;9.164;2023-06-10T13:40:59;27.10;55.00
152;DHT22;68;48.792;9.164;2023-06-10T13:43:28;27.20;56.10
152;DHT22;68;48.792;9.164;2023-06-10T13:45:55;27.30;54.90
152;DHT22;68;48.792;9.164;2023-06-10T13:48:22;27.40;55.80
152;DHT22;68;48.792;9.164;2023-06-10T13:50:49;27.40;55.60
152;DHT22;68;48.792;9.164;2023-06-10T13:53:15;27.40;56.10
152;DHT22;68;48.792;9.164;2023-06-10T13:55:42;27.30;55.50
152;DHT22;68;48.792;9.164;2023-06-10T13:58:09;27.20;55.80
152;DHT22;68;48.792;9.164;2023-06-10T14:00:37;26.90;58.50
152;DHT22;68;48.792;9.164;2023-06-10T14:03:04;26.80;57.60
152;DHT22;68;48.792;9.164;2023-06-10T14:05:30;26.70;56.80
152;DHT22;68;48.792;9.164;2023-06-10T14:07:58;26.40;57.10
152;DHT22;68;48.792;9.164;2023-06-10T14:10:25;26.50;57.60
152;DHT22;68;48.792;9.164;2023-06-10T14:12:51;26.60;57.60
152;DHT22;68;48.792;9.164;2023-06-10T14:15:19;26.90;57.90
152;DHT22;68;48.792;9.164;2023-06-10T14:17:47;27.10;60.10
152;DHT22;68;48.792;9.164;2023-06-10T14:20:13;27.20;58.00
152;DHT22;68;48.792;9.164;2023-06-10T14:22:40;27.10;55.80
152;DHT22;68;48.792;9.164;2023-06-10T14:25:07;27.20;56.70
152;DHT22;68;48.792;9.164;2023-06-10T14:27:34;27.20;55.70
152;DHT22;68;48.792;9.164;2023-06-10T14:30:01;27.40;57.70
152;DHT22;68;48.792;9.164;2023-06-10T14:32:29;27.60;57.30
152;DHT22;68;48.792;9.164;2023-06-10T14:34:57;27.70;54.60
152;DHT22;68;48.792;9.164;2023-06-10T14:37:24;27.70;55.60
152;DHT22;68;48.792;9.164;2023-06-10T14:39:50;27.80;55.20
152;DHT22;68;48.792;9.164;2023-06-10T14:42:17;27.80;55.00
152;DHT22;68;48.792;9.164;2023-06-10T14:44:44;27.60;55.60
152;DHT22;68;48.792;9.164;2023-06-10T14:47:11;27.50;56.00
152;DHT22;68;48.792;9.164;2023-06-10T14:49:37;27.50;56.40
152;DHT22;68;48.792;9.164;2023-06-10T14:52:06;27.60;55.80
152;DHT22;68;48.792;9.164;2023-06-10T14:54:33;27.50;56.20
152;DHT22;68;48.792;9.164;2023-06-10T14:57:00;27.50;56.90
152;DHT22;68;48.792;9.164;2023-06-10T14:59:26;27.50;56.20
152;DHT22;68;48.792;9.164;2023-06-10T15:01:53;27.40;56.00
152;DHT22;68;48.792;9.164;2023-06-10T15:04:20;27.50;57.20
152;DHT22;68;48.792;9.164;2023-06-10T15:06:47;27.40;56.10
152;DHT22;68;48.792;9.164;2023-06-10T15:09:15;27.60;55.70
152;DHT22;68;48.792;9.164;2023-06-10T15:11:42;27.80;55.30
152;DHT22;68;48.792;9.164;2023-06-10T15:14:09;28.00;54.70
152;DHT22;68;48.792;9.164;2023-06-10T15:16:36;27.90;56.10
152;DHT22;68;48.792;9.164;2023-06-10T15:19:02;27.90;56.20
152;DHT22;68;48.792;9.164;2023-06-10T15:21:32;27.70;56.40
152;DHT22;68;48.792;9.164;2023-06-10T15:23:58;27.70;56.50
152;DHT22;68;48.792;9.164;2023-06-10T15:26:27;27.70;56.30
152;DHT22;68;48.792;9.164;2023-06-10T15:28:54;27.30;56.40
152;DHT22;68;48.792;9.164;2023-06-10T15:31:20;27.20;55.40
152;DHT22;68;48.792;9.164;2023-06-10T15:33:47;27.10;55.40
152;DHT22;68;48.792;9.164;2023-06-10T15:36:14;26.90;56.10
152;DHT22;68;48.792;9.164;2023-06-10T15:38:41;26.80;56.30
152;DHT22;68;48.792;9.164;2023-06-10T15:41:07;26.90;56.60
152;DHT22;68;48.792;9.164;2023-06-10T15:43:35;26.90;55.40
152;DHT22;68;48.792;9.164;2023-06-10T15:46:02;26.90;55.80
152;DHT22;68;48.792;9.164;2023-06-10T15:48:29;27.00;55.50
152;DHT22;68;48.792;9.164;2023-06-10T15:50:56;27.00;55.70
152;DHT22;68;48.792;9.164;2023-06-10T15:53:22;27.00;55.80
152;DHT22;68;48.792;9.164;2023-06-10T15:55:49;27.00;56.10
152;DHT22;68;48.792;9.164;2023-06-10T15:58:16;27.10;55.60
152;DHT22;68;48.792;9.164;2023-06-10T16:00:44;27.10;56.30
152;DHT22;68;48.792;9.164;2023-06-10T16:03:11;27.10;56.80
152;DHT22;68;48.792;9.164;2023-06-10T16:05:38;27.10;56.10
152;DHT22;68;48.792;9.164;2023-06-10T16:08:05;27.00;56.50
152;DHT22;68;48.792;9.164;2023-06-10T16:10:32;26.90;56.90
152;DHT22;68;48.792;9.164;2023-06-10T16:12:58;26.90;56.60
152;DHT22;68;48.792;9.164;2023-06-10T16:15:25;26.90;56.50
152;DHT22;68;48.792;9.164;2023-06-10T16:17:53;27.10;56.00
152;DHT22;68;48.792;9.164;2023-06-10T16:20:20;27.10;56.00
152;DHT22;68;48.792;9.164;2023-06-10T16:22:47;27.00;55.10
152;DHT22;68;48.792;9.164;2023-06-10T16:25:14;26.90;55.50
152;DHT22;68;48.792;9.164;2023-06-10T16:27:41;27.00;55.90
152;DHT22;68;48.792;9.164;2023-06-10T16:30:08;27.10;56.80
152;DHT22;68;48.792;9.164;2023-06-10T16:32:35;27.00;56.30
152;DHT22;68;48.792;9.164;2023-06-10T16:35:04;26.90;57.40
152;DHT22;68;48.792;9.164;2023-06-10T16:37:31;27.00;58.00
152;DHT22;68;48.792;9.164;2023-06-10T16:39:58;27.20;57.30
152;DHT22;68;48.792;9.164;2023-06-10T16:42:25;27.00;57.40
152;DHT22;68;48.792;9.164;2023-06-10T16:44:52;27.00;56.40
152;DHT22;68;48.792;9.164;2023-06-10T16:47:18;26.90;56.70
152;DHT22;68;48.792;9.164;2023-06-10T16:49:45;26.90;56.20
152;DHT22;68;48.792;9.164;2023-06-10T16:52:13;26.80;56.40
152;DHT22;68;48.792;9.164;2023-06-10T16:54:41;26.90;57.20
152;DHT22;68;48.792;9.164;2023-06-10T16:57:07;26.90;57.10
152;DHT22;68;48.792;9.164;2023-06-10T16:59:34;27.10;56.20